Time;durP1;ratioP1;P1;durP2;ratioP2;P2;SDS_P1;SDS_P2;PMS_P1;PMS_P2;Temp;Humidity;BMP_temperature;BMP_pressure;BME280_temperature;BME280_humidity;BME280_pressure;Samples;Min_cycle;Max_cycle;Signal;HPM_P1;HPM_P2
2020/12/02 00:01:21;;;;;;;44.10;22.00;;;3.70;71.50;;;;;;5055604;28;20029;-44
2020/12/02 00:04:06;;;;;;;37.88;20.08;;;3.70;71.60;;;;;;5055326;28;20021;-45
2020/12/02 00:06:34;;;;;;;47.75;22.73;;;3.70;71.40;;;;;;5055772;28;20059;-44
2020/12/02 00:09:07;;;;;;;38.13;19.98;;;3.60;71.30;;;;;;5054546;28;20031;-44
2020/12/02 00:11:33;;;;;;;47.20;22.75;;;3.60;71.20;;;;;;5055409;28;20108;-44
2020/12/02 00:14:01;;;;;;;41.80;20.60;;;3.60;71.80;;;;;;5055185;28;20381;-44
2020/12/02 00:16:29;;;;;;;36.15;18.08;;;3.60;71.50;;;;;;5055027;28;20036;-45
2020/12/02 00:18:55;;;;;;;41.25;21.48;;;3.60;71.60;;;;;;5055317;28;20040;-44
2020/12/02 00:21:23;;;;;;;39.42;19.67;;;3.60;71.50;;;;;;5055101;28;20082;-44
2020/12/02 00:23:51;;;;;;;47.63;22.38;;;3.60;71.60;;;;;;5055075;28;20025;-45
2020/12/02 00:26:19;;;;;;;40.67;20.70;;;3.60;71.70;;;;;;5055642;28;20414;-44
2020/12/02 00:28:45;;;;;;;36.67;21.17;;;3.60;71.50;;;;;;5054965;28;20029;-45
2020/12/02 00:31:12;;;;;;;33.10;17.45;;;3.60;71.50;;;;;;5055858;28;20031;-44
2020/12/02 00:33:39;;;;;;;39.78;20.73;;;3.60;71.40;;;;;;5054610;28;20450;-46
2020/12/02 00:36:04;;;;;;;37.55;19.30;;;3.60;71.60;;;;;;5037672;28;20052;-46
2020/12/02 00:38:30;;;;;;;40.33;20.85;;;3.60;71.60;;;;;;5055162;28;20033;-46
2020/12/02 00:40:56;;;;;;;47.95;19.92;;;3.60;71.70;;;;;;5055756;28;20086;-44
2020/12/02 00:43:25;;;;;;;47.00;21.95;;;3.60;71.70;;;;;;5054609;28;20032;-44
2020/12/02 00:45:57;;;;;;;41.40;22.15;;;3.60;71.60;;;;;;5054771;28;20090;-45
2020/12/02 00:48:25;;;;;;;35.35;18.58;;;3.60;71.70;;;;;;5054785;28;20025;-44
2020/12/02 00:50:51;;;;;;;35.42;18.77;;;3.50;71.60;;;;;;5055488;28;20174;-44
2020/12/02 00:53:24;;;;;;;46.17;22.27;;;3.60;71.70;;;;;;5054174;28;20047;-45
2020/12/02 00:55:51;;;;;;;51.28;23.88;;;3.50;71.70;;;;;;5055228;28;20476;-46
2020/12/02 00:58:42;;;;;;;46.30;23.23;;;3.50;71.80;;;;;;5054554;28;20104;-45
2020/12/02 01:01:12;;;;;;;37.33;19.65;;;3.50;72.00;;;;;;5055655;28;20024;-45
2020/12/02 01:03:37;;;;;;;36.58;18.27;;;3.50;71.90;;;;;;5054443;28;20509;-45
2020/12/02 01:06:05;;;;;;;39.60;19.50;;;3.50;71.70;;;;;;5054450;28;20053;-45
2020/12/02 01:08:34;;;;;;;45.50;22.67;;;3.50;72.30;;;;;;5054303;28;20032;-45
2020/12/02 01:11:21;;;;;;;46.00;20.92;;;3.50;71.90;;;;;;5055374;28;20411;-46
2020/12/02 01:13:52;;;;;;;42.00;22.15;;;3.50;72.10;;;;;;5057222;28;20020;-44
2020/12/02 01:16:24;;;;;;;41.92;20.33;;;3.50;72.00;;;;;;5058762;28;20033;-45
2020/12/02 01:18:49;;;;;;;41.05;20.25;;;3.50;72.00;;;;;;5058235;28;20112;-44
2020/12/02 01:21:22;;;;;;;39.90;22.55;;;3.50;71.90;;;;;;5058690;28;20124;-45
2020/12/02 01:23:54;;;;;;;38.90;20.45;;;3.50;72.00;;;;;;5058214;28;20082;-45
2020/12/02 01:26:22;;;;;;;37.70;20.98;;;3.50;72.00;;;;;;5058428;28;20029;-45
2020/12/02 01:28:51;;;;;;;46.00;21.77;;;3.50;72.00;;;;;;5040064;28;20379;-44
2020/12/02 01:31:17;;;;;;;39.88;20.58;;;3.50;72.10;;;;;;5058633;28;20040;-45
2020/12/02 01:33:43;;;;;;;42.45;22.25;;;3.50;72.10;;;;;;5057783;28;20330;-45
2020/12/02 01:36:10;;;;;;;38.28;21.77;;;3.50;72.20;;;;;;5058105;28;20365;-44
2020/12/02 01:38:40;;;;;;;39.30;19.40;;;3.50;72.20;;;;;;5058042;28;20029;-45
2020/12/02 01:41:08;;;;;;;41.55;22.48;;;3.60;72.20;;;;;;5058203;28;20448;-45
2020/12/02 01:43:34;;;;;;;41.20;20.67;;;3.60;72.10;;;;;;5057231;28;20171;-45
2020/12/02 01:46:32;;;;;;;45.42;21.90;;;3.50;71.90;;;;;;5058130;28;20143;-45
2020/12/02 01:49:13;;;;;;;37.33;19.42;;;3.60;72.00;;;;;;5057897;28;20087;-45
2020/12/02 01:52:00;;;;;;;34.75;18.88;;;3.60;71.80;;;;;;5057891;28;20029;-45
2020/12/02 01:54:41;;;;;;;40.60;19.77;;;3.60;72.00;;;;;;5057117;28;20025;-45
2020/12/02 01:57:09;;;;;;;41.95;21.10;;;3.60;72.10;;;;;;5057472;28;20029;-44
2020/12/02 01:59:46;;;;;;;41.30;21.35;;;3.60;72.10;;;;;;5057446;28;20378;-45
2020/12/02 02:02:36;;;;;;;39.35;21.55;;;3.50;72.00;;;;;;5057821;28;20033;-44
2020/12/02 02:05:18;;;;;;;38.50;18.83;;;3.60;72.20;;;;;;5057262;28;20348;-45
2020/12/02 02:07:44;;;;;;;36.88;18.23;;;3.60;72.30;;;;;;5056978;28;20029;-45
2020/12/02 02:10:31;;;;;;;31.73;16.83;;;3.50;72.20;;;;;;5057222;28;20029;-45
2020/12/02 02:12:57;;;;;;;37.92;19.05;;;3.50;72.20;;;;;;5057792;28;20029;-46
2020/12/02 02:16:07;;;;;;;32.30;16.65;;;3.50;72.00;;;;;;5057464;28;20399;-44
2020/12/02 02:18:34;;;;;;;31.80;16.73;;;3.60;72.00;;;;;;4995812;28;20041;-46
2020/12/02 02:21:14;;;;;;;32.45;17.77;;;3.50;71.90;;;;;;4995635;28;20235;-49
2020/12/02 02:23:40;;;;;;;32.42;15.73;;;3.60;72.10;;;;;;5032796;28;20037;-46
2020/12/02 02:26:15;;;;;;;40.97;20.08;;;3.60;72.10;;;;;;5057207;28;20048;-46
2020/12/02 02:29:08;;;;;;;37.55;18.98;;;3.60;72.10;;;;;;5056815;28;20044;-46
2020/12/02 02:31:42;;;;;;;41.70;19.42;;;3.60;72.10;;;;;;5057605;28;20032;-47
2020/12/02 02:34:10;;;;;;;34.55;18.02;;;3.60;72.00;;;;;;5056672;28;20024;-45
2020/12/02 02:36:36;;;;;;;31.25;17.70;;;3.60;72.00;;;;;;5056438;28;20021;-49
2020/12/02 02:39:05;;;;;;;33.47;18.45;;;3.60;72.00;;;;;;5056864;28;20085;-45
2020/12/02 02:41:31;;;;;;;33.85;17.98;;;3.60;72.00;;;;;;5057014;28;20017;-47
2020/12/02 02:43:57;;;;;;;36.15;17.65;;;3.60;72.10;;;;;;5056286;28;20044;-47
2020/12/02 02:46:23;;;;;;;43.38;20.30;;;3.60;72.00;;;;;;5057105;28;20086;-46
2020/12/02 02:48:49;;;;;;;35.03;16.40;;;3.60;71.90;;;;;;5056202;28;20024;-48
2020/12/02 02:51:14;;;;;;;37.45;18.17;;;3.60;71.80;;;;;;5056157;28;20033;-45
2020/12/02 02:53:40;;;;;;;35.72;18.10;;;3.60;71.80;;;;;;5056298;28;20070;-46
2020/12/02 02:56:06;;;;;;;38.28;18.65;;;3.70;71.90;;;;;;5056493;28;20059;-46
2020/12/02 02:58:32;;;;;;;32.47;16.25;;;3.60;71.90;;;;;;5055824;28;20017;-46
2020/12/02 03:01:00;;;;;;;29.63;16.25;;;3.60;71.90;;;;;;5057039;28;20033;-46
2020/12/02 03:03:29;;;;;;;34.47;16.75;;;3.60;72.00;;;;;;5056188;28;20017;-45
2020/12/02 03:05:56;;;;;;;40.88;20.42;;;3.70;71.90;;;;;;5055740;28;20053;-48
2020/12/02 03:08:22;;;;;;;37.28;17.00;;;3.70;72.00;;;;;;5055906;28;20028;-45
2020/12/02 03:10:47;;;;;;;34.13;15.02;;;3.70;71.90;;;;;;5056345;28;20407;-45
2020/12/02 03:13:25;;;;;;;31.35;16.65;;;3.70;71.70;;;;;;5056120;28;20110;-46
2020/12/02 03:15:51;;;;;;;39.90;18.58;;;3.70;71.80;;;;;;5056745;28;20079;-46
2020/12/02 03:18:18;;;;;;;33.60;17.60;;;3.70;71.90;;;;;;5055910;28;20377;-45
2020/12/02 03:20:50;;;;;;;30.27;15.52;;;3.70;72.00;;;;;;5056168;28;20339;-44
2020/12/02 03:23:18;;;;;;;31.77;16.10;;;3.60;72.00;;;;;;5056210;28;20169;-44
2020/12/02 03:25:44;;;;;;;31.52;16.23;;;3.60;72.00;;;;;;5056061;28;20071;-46
2020/12/02 03:28:11;;;;;;;31.95;14.23;;;3.70;72.10;;;;;;5055698;28;20108;-44
2020/12/02 03:30:38;;;;;;;31.45;15.52;;;3.70;72.00;;;;;;5056233;28;20036;-44
2020/12/02 03:33:08;;;;;;;29.90;14.48;;;3.70;71.90;;;;;;5055978;28;20367;-46
2020/12/02 03:35:34;;;;;;;28.85;14.63;;;3.70;71.90;;;;;;5055394;28;20025;-44
2020/12/02 03:38:00;;;;;;;28.35;14.85;;;3.60;71.90;;;;;;5055589;28;20316;-45
2020/12/02 03:40:25;;;;;;;30.20;15.80;;;3.70;71.90;;;;;;5056161;28;20033;-45
2020/12/02 03:42:51;;;;;;;25.52;14.10;;;3.70;71.90;;;;;;5055358;28;20423;-48
2020/12/02 03:45:17;;;;;;;31.80;16.40;;;3.70;71.90;;;;;;5055514;28;20236;-47
2020/12/02 03:47:43;;;;;;;26.48;12.75;;;3.70;71.90;;;;;;5055463;28;20025;-44
2020/12/02 03:50:11;;;;;;;26.38;14.32;;;3.70;71.90;;;;;;5055589;28;20040;-46
2020/12/02 03:52:37;;;;;;;29.45;15.68;;;3.70;71.90;;;;;;5055740;28;20422;-45
2020/12/02 03:55:04;;;;;;;24.98;14.52;;;3.60;71.90;;;;;;5055092;28;20028;-45
2020/12/02 03:57:30;;;;;;;27.25;14.57;;;3.60;71.80;;;;;;5055392;28;20035;-44
2020/12/02 03:59:56;;;;;;;23.55;12.95;;;3.60;71.90;;;;;;5055588;28;20029;-45
2020/12/02 04:02:22;;;;;;;29.83;15.70;;;3.60;72.00;;;;;;5055860;28;20029;-46
2020/12/02 04:04:47;;;;;;;25.98;14.45;;;3.60;72.10;;;;;;5054745;28;20082;-44
2020/12/02 04:07:14;;;;;;;26.35;14.70;;;3.60;72.30;;;;;;5055271;28;20072;-46
2020/12/02 04:09:39;;;;;;;23.73;12.52;;;3.60;72.30;;;;;;5055327;28;20060;-44
2020/12/02 04:12:05;;;;;;;20.15;12.57;;;3.60;72.30;;;;;;5055390;28;20327;-47
2020/12/02 04:14:31;;;;;;;24.48;13.20;;;3.60;72.20;;;;;;5055272;28;20025;-46
2020/12/02 04:16:56;;;;;;;24.98;14.55;;;3.60;72.20;;;;;;5055797;28;20032;-46
2020/12/02 04:19:23;;;;;;;24.73;14.02;;;3.60;72.80;;;;;;5054899;28;20033;-46
2020/12/02 04:21:48;;;;;;;19.85;12.35;;;3.60;72.40;;;;;;5055425;28;20032;-44
2020/12/02 04:24:14;;;;;;;22.10;13.30;;;3.60;72.30;;;;;;5055097;28;20024;-44
2020/12/02 04:26:40;;;;;;;20.73;10.98;;;3.60;72.30;;;;;;5054762;28;20037;-48
2020/12/02 04:29:06;;;;;;;19.63;11.32;;;3.60;72.30;;;;;;5055126;28;20312;-44
2020/12/02 04:31:31;;;;;;;21.60;12.25;;;3.60;72.30;;;;;;5055527;28;20025;-44
2020/12/02 04:33:57;;;;;;;20.23;11.30;;;3.60;72.40;;;;;;5054560;28;20028;-46
2020/12/02 04:36:23;;;;;;;17.98;10.40;;;3.60;72.30;;;;;;5055569;28;20033;-45
2020/12/02 04:38:49;;;;;;;19.42;11.80;;;3.60;72.50;;;;;;5055523;28;20401;-47
2020/12/02 04:41:17;;;;;;;22.65;12.30;;;3.60;72.60;;;;;;5055126;28;20087;-45
2020/12/02 04:43:47;;;;;;;18.63;10.95;;;3.60;72.60;;;;;;5054746;28;20128;-45
2020/12/02 04:46:28;;;;;;;19.15;11.27;;;3.60;72.50;;;;;;5055695;28;20402;-47
2020/12/02 04:48:59;;;;;;;14.18;9.05;;;3.60;72.30;;;;;;5057784;28;20039;-46
2020/12/02 04:51:26;;;;;;;;;;;3.70;72.30;;;;;;5060051;28;20343;-44
2020/12/02 04:53:55;;;;;;;20.67;11.30;;;3.60;72.20;;;;;;5058280;28;19932;-44
2020/12/02 04:56:24;;;;;;;16.67;10.88;;;3.60;72.30;;;;;;5058816;28;20036;-45
2020/12/02 04:58:51;;;;;;;17.50;9.60;;;3.60;72.50;;;;;;5058665;28;20039;-45
2020/12/02 05:01:48;;;;;;;14.43;9.15;;;3.60;72.50;;;;;;5059553;28;20032;-44
2020/12/02 05:04:15;;;;;;;18.90;10.65;;;3.60;72.40;;;;;;5030094;28;20044;-44
2020/12/02 05:06:45;;;;;;;19.20;10.63;;;3.70;72.50;;;;;;5056017;28;20079;-48
2020/12/02 05:09:22;;;;;;;15.33;9.70;;;3.60;72.30;;;;;;5058771;28;20029;-44
2020/12/02 05:12:06;;;;;;;13.50;8.85;;;3.70;72.30;;;;;;5058779;28;20295;-44
2020/12/02 05:14:33;;;;;;;16.25;11.00;;;3.70;72.20;;;;;;5058300;28;20331;-44
2020/12/02 05:17:26;;;;;;;19.05;11.55;;;3.70;72.30;;;;;;5058272;28;20049;-46
2020/12/02 05:20:07;;;;;;;17.73;10.20;;;3.60;72.20;;;;;;5051622;28;20340;-45
2020/12/02 05:22:39;;;;;;;;;;;3.60;72.10;;;;;;5059100;28;20037;-44
2020/12/02 05:25:07;;;;;;;15.98;9.85;;;3.60;71.80;;;;;;5057938;28;19963;-45
2020/12/02 05:27:36;;;;;;;17.98;11.52;;;3.60;72.00;;;;;;5057903;28;20035;-44
2020/12/02 05:30:15;;;;;;;22.80;13.32;;;3.60;72.30;;;;;;5057610;28;20068;-44
2020/12/02 05:32:41;;;;;;;24.80;14.70;;;3.60;72.20;;;;;;5058405;28;20320;-45
2020/12/02 05:35:14;;;;;;;16.50;11.40;;;3.60;72.40;;;;;;5057480;28;20039;-47
2020/12/02 05:37:53;;;;;;;24.23;14.27;;;3.50;72.50;;;;;;5058472;28;20017;-44
2020/12/02 05:40:21;;;;;;;30.83;16.92;;;3.50;72.50;;;;;;5057836;28;20029;-43
2020/12/02 05:42:53;;;;;;;18.98;11.95;;;3.50;72.60;;;;;;5057765;28;20035;-45
2020/12/02 05:45:30;;;;;;;22.08;13.18;;;3.50;72.80;;;;;;5057141;28;20075;-44
2020/12/02 05:47:56;;;;;;;20.20;11.70;;;3.50;72.70;;;;;;5057600;28;20029;-44
2020/12/02 05:50:24;;;;;;;28.02;16.45;;;3.50;72.70;;;;;;5057550;28;20032;-43
2020/12/02 05:53:30;;;;;;;26.33;16.90;;;3.50;72.70;;;;;;5058109;28;20363;-44
2020/12/02 05:55:56;;;;;;;37.20;25.42;;;3.50;72.90;;;;;;5043603;28;20045;-44
2020/12/02 05:58:29;;;;;;;36.78;23.55;;;3.50;72.80;;;;;;5056603;28;20031;-44
2020/12/02 06:00:55;;;;;;;25.77;16.70;;;3.60;73.00;;;;;;5057163;28;20214;-47
2020/12/02 06:03:26;;;;;;;26.35;16.15;;;3.50;73.00;;;;;;5056011;28;20017;-44
2020/12/02 06:06:01;;;;;;;25.17;16.05;;;3.60;73.20;;;;;;5057199;28;20053;-44
2020/12/02 06:08:42;;;;;;;30.90;18.20;;;3.60;73.00;;;;;;5056917;28;20055;-44
